Aérodrome :
LOGIN :

S'inscrire | Disclaimer

   EN    FR    IT 

 










Légende :    VFR   VFR Marginal   IFR   IFR Intensif   IFR Très Intensif
Visi : 
Plafond : 
>= 8 km
>= 3000ft
5 à 8 km
1000 à 3000 ft
1500m à 5 km
500 à 1000 ft
800 à 1500m
200 à 500 ft
< 800m
< 200 ft
Symboles :   Orages  Brouillard  Fortes neiges  Fortes précipitations  Vent > 20 kt
SIGMETs :   Divers  Orages  Givrage  Turbulence  Onde Orograph.  Cendres Volcan.







- Altitude de l'aérodrome : 138 ft
- Code IATA : RLG


ETNL - Rostock Laage

DERNIER METAR :
  • 250920Z 24013G23KT 9999 SCT020 BKN050 14/10 Q1000 BLU BLU

METARs EXPIRÉS :
  • 250820Z 23014G25KT 9999 BKN018 BKN028 14/11 Q1000 WHT WHT
  • 250747Z 23012G22KT 7000 SCT011 BKN018 BKN032 13/11 Q1000 WHT WHT TEMPO GRN
  • 250720Z 22010KT 7000 SCT011 BKN031 BKN130 13/11 Q1001 WHT WHT TEMPO GRN

TAF TAF ETNL
Valide du 25 à 08h jusqu'au 25 à 17h UTC


250720Z 2508/2517 24010G20KT 6000 -RA SCT010 BKN020
TEMPO 2508/2509 25015G25KT 4000 DZ BKN010
BECMG 2509/2511 26020G30KT 8000 NSW FEW012 BKN030
TEMPO 2511/2514 28025G38KT 4000 SHRA BKN012 BKN030 BY ETGL
Pas de NOTAMs connus pour ce terrain.



MET'MAP, la Météo Aéronautique d'un coup d'oeil ! - Copyright ORBIFLY Décembre 2007 - Disclaimer

ORBIFLY MET'MAP TEAM :

Programmation & Développement : Alexandra Zaïnal
Conception & Développement : Baudouin d'Aumeries
Co-Programmation & Développement : Marc-Olivier Méhu
Soutien technique & logistique : Manuel Goepfert

Contact : metmap@orbifly.com




SOURCES & CREDITS :

   NOAA